Terminal Aerodrome Forecast
Issued by NWS Bismarck, ND

Home | Current Version | Previous Version | Graphics & Text | Print | Product List | Glossary On
Versions: 1 2 3 4 5 6 7 8 9 10 11 12 13 14 15 16 17 18 19 20 21 22
000
FTUS43 KBIS 200524
TAFBIS
TAF
KBIS 200524Z 2006/2106 19004KT P6SM BKN250
     FM201200 24005KT P6SM BKN250
     FM201700 26010G18KT P6SM SCT250
     FM202000 29015G24KT P6SM SCT200
     FM210000 32017G26KT P6SM SCT200=

USA.gov is the U.S. government's official web portal to all federal, state and local government web resources and services.